TimeEDT,TemperatureF,Dew PointF,Humidity,Sea Level PressureIn,VisibilityMPH,Wind Direction,Wind SpeedMPH,Gust SpeedMPH,PrecipitationIn,Events,Conditions,WindDirDegrees,DateUTC
12:00 AM,66.2,66.2,100,29.53,15.0,SSW,6.9,-,N/A,,Overcast,210,2013-07-24 04:00:00
1:00 AM,68.0,66.2,94,29.53,10.0,SW,5.8,-,N/A,,Overcast,230,2013-07-24 05:00:00
1:24 AM,68.0,66.2,94,29.54,10.0,WSW,3.5,-,N/A,,Overcast,240,2013-07-24 05:24:00
2:00 AM,68.0,66.2,94,29.53,10.0,WSW,4.6,-,N/A,,Overcast,250,2013-07-24 06:00:00
3:00 AM,66.2,64.4,94,29.56,15.0,NW,6.9,-,N/A,,Overcast,310,2013-07-24 07:00:00
4:00 AM,62.6,59.0,88,29.58,15.0,NW,9.2,-,N/A,,Mostly Cloudy,310,2013-07-24 08:00:00
5:00 AM,60.8,55.4,82,29.61,15.0,WNW,4.6,-,N/A,,Scattered Clouds,290,2013-07-24 09:00:00
6:00 AM,57.2,51.8,82,29.66,25.0,WNW,8.1,-,N/A,,Mostly Cloudy,300,2013-07-24 10:00:00
7:00 AM,55.4,48.2,77,29.68,25.0,WNW,6.9,-,N/A,,Mostly Cloudy,300,2013-07-24 11:00:00
8:00 AM,55.4,46.4,72,29.72,25.0,WNW,8.1,-,N/A,,Mostly Cloudy,300,2013-07-24 12:00:00
9:00 AM,57.2,46.4,67,29.76,25.0,NW,9.2,-,N/A,,Mostly Cloudy,320,2013-07-24 13:00:00
10:00 AM,57.2,46.4,67,29.79,45.0,NW,8.1,18.4,N/A,,Mostly Cloudy,310,2013-07-24 14:00:00
11:00 AM,57.2,46.4,67,29.83,45.0,NW,8.1,18.4,N/A,,Overcast,310,2013-07-24 15:00:00
12:00 PM,55.4,46.4,72,29.86,45.0,NW,11.5,-,N/A,,Overcast,320,2013-07-24 16:00:00
1:00 PM,60.8,48.2,63,29.87,45.0,WSW,9.2,18.4,N/A,,Mostly Cloudy,240,2013-07-24 17:00:00
2:00 PM,59.0,44.6,59,29.89,45.0,WNW,10.4,19.6,N/A,,Mostly Cloudy,300,2013-07-24 18:00:00
3:00 PM,59.0,44.6,59,29.91,45.0,WNW,5.8,19.6,N/A,,Mostly Cloudy,290,2013-07-24 19:00:00
4:00 PM,60.8,46.4,59,29.92,45.0,NW,8.1,19.6,N/A,,Mostly Cloudy,320,2013-07-24 20:00:00
5:00 PM,60.8,46.4,59,29.94,45.0,NW,10.4,18.4,N/A,,Mostly Cloudy,320,2013-07-24 21:00:00
6:00 PM,60.8,44.6,55,29.96,45.0,NW,9.2,-,N/A,,Mostly Cloudy,320,2013-07-24 22:00:00
7:00 PM,60.8,46.4,59,29.99,45.0,WNW,4.6,-,N/A,,Scattered Clouds,300,2013-07-24 23:00:00
8:00 PM,59.0,46.4,63,30.01,25.0,North,6.9,-,N/A,,Partly Cloudy,350,2013-07-25 00:00:00
9:00 PM,51.8,46.4,82,30.03,25.0,Calm,Calm,-,N/A,,Partly Cloudy,0,2013-07-25 01:00:00
10:00 PM,50.0,48.2,94,30.05,25.0,Calm,Calm,-,N/A,,Clear,0,2013-07-25 02:00:00
11:00 PM,48.2,46.4,93,30.06,25.0,NNE,2.3,-,N/A,,Clear,30,2013-07-25 03:00:00